sensor_id;sensor_type;location;lat;lon;timestamp;temperature;humidity
1524;DHT22;755;53.658;10.118;2023-12-20T00:02:01;5.60;99.90
1524;DHT22;755;53.658;10.118;2023-12-20T00:12:05;5.50;99.90
1524;DHT22;755;53.658;10.118;2023-12-20T00:22:11;5.40;99.90
1524;DHT22;755;53.658;10.118;2023-12-20T00:32:15;5.30;99.90
1524;DHT22;755;53.658;10.118;2023-12-20T00:42:17;5.20;99.90
1524;DHT22;755;53.658;10.118;2023-12-20T00:52:20;5.30;99.90
1524;DHT22;755;53.658;10.118;2023-12-20T01:02:23;5.40;99.90
1524;DHT22;755;53.658;10.118;2023-12-20T01:12:26;5.50;99.90
1524;DHT22;755;53.658;10.118;2023-12-20T01:22:28;5.50;99.90
1524;DHT22;755;53.658;10.118;2023-12-20T01:32:31;5.40;99.90
1524;DHT22;755;53.658;10.118;2023-12-20T01:42:33;5.20;99.90
1524;DHT22;755;53.658;10.118;2023-12-20T01:52:37;5.20;99.90
1524;DHT22;755;53.658;10.118;2023-12-20T02:02:40;5.20;99.90
1524;DHT22;755;53.658;10.118;2023-12-20T02:12:44;5.20;99.90
1524;DHT22;755;53.658;10.118;2023-12-20T02:22:49;5.30;99.90
1524;DHT22;755;53.658;10.118;2023-12-20T02:32:52;5.30;99.90
1524;DHT22;755;53.658;10.118;2023-12-20T02:42:56;5.30;99.90
1524;DHT22;755;53.658;10.118;2023-12-20T02:52:58;5.30;99.90
1524;DHT22;755;53.658;10.118;2023-12-20T03:03:02;5.40;99.90
1524;DHT22;755;53.658;10.118;2023-12-20T03:13:04;5.30;99.90
1524;DHT22;755;53.658;10.118;2023-12-20T03:23:07;5.30;99.90
1524;DHT22;755;53.658;10.118;2023-12-20T03:33:12;5.30;99.90
1524;DHT22;755;53.658;10.118;2023-12-20T03:43:15;5.40;99.90
1524;DHT22;755;53.658;10.118;2023-12-20T03:53:17;5.30;99.90
1524;DHT22;755;53.658;10.118;2023-12-20T04:03:20;5.30;99.90
1524;DHT22;755;53.658;10.118;2023-12-20T04:13:22;5.30;99.90
1524;DHT22;755;53.658;10.118;2023-12-20T04:23:25;5.30;99.90
1524;DHT22;755;53.658;10.118;2023-12-20T04:33:27;5.30;99.90
1524;DHT22;755;53.658;10.118;2023-12-20T04:43:30;5.30;99.90
1524;DHT22;755;53.658;10.118;2023-12-20T04:53:32;5.30;99.90
1524;DHT22;755;53.658;10.118;2023-12-20T05:03:36;5.30;99.90
1524;DHT22;755;53.658;10.118;2023-12-20T05:13:37;5.30;99.90
1524;DHT22;755;53.658;10.118;2023-12-20T05:23:41;5.40;99.90
1524;DHT22;755;53.658;10.118;2023-12-20T05:33:43;5.50;99.90
1524;DHT22;755;53.658;10.118;2023-12-20T05:43:46;5.50;99.90
1524;DHT22;755;53.658;10.118;2023-12-20T05:53:48;5.60;99.90
1524;DHT22;755;53.658;10.118;2023-12-20T06:03:51;5.50;99.90
1524;DHT22;755;53.658;10.118;2023-12-20T06:13:53;5.50;99.90
1524;DHT22;755;53.658;10.118;2023-12-20T06:23:58;5.50;99.90
1524;DHT22;755;53.658;10.118;2023-12-20T06:34:00;5.60;99.90
1524;DHT22;755;53.658;10.118;2023-12-20T06:44:03;5.60;99.90
1524;DHT22;755;53.658;10.118;2023-12-20T06:54:05;5.60;99.90
1524;DHT22;755;53.658;10.118;2023-12-20T07:04:09;5.60;99.90
1524;DHT22;755;53.658;10.118;2023-12-20T07:14:11;5.60;99.90
1524;DHT22;755;53.658;10.118;2023-12-20T07:24:14;5.60;99.90
1524;DHT22;755;53.658;10.118;2023-12-20T07:34:16;5.60;99.90
1524;DHT22;755;53.658;10.118;2023-12-20T07:44:19;5.60;99.90
1524;DHT22;755;53.658;10.118;2023-12-20T07:54:22;5.70;99.90
1524;DHT22;755;53.658;10.118;2023-12-20T08:04:25;5.70;99.90
1524;DHT22;755;53.658;10.118;2023-12-20T08:14:27;5.70;99.90
1524;DHT22;755;53.658;10.118;2023-12-20T08:24:31;5.70;99.90
1524;DHT22;755;53.658;10.118;2023-12-20T08:34:33;5.80;99.90
1524;DHT22;755;53.658;10.118;2023-12-20T08:44:36;5.90;99.90
1524;DHT22;755;53.658;10.118;2023-12-20T08:54:38;6.00;99.90
1524;DHT22;755;53.658;10.118;2023-12-20T09:04:41;6.20;99.90
1524;DHT22;755;53.658;10.118;2023-12-20T09:14:43;6.20;99.90
1524;DHT22;755;53.658;10.118;2023-12-20T09:24:46;6.00;99.90
1524;DHT22;755;53.658;10.118;2023-12-20T09:34:48;5.80;99.90
1524;DHT22;755;53.658;10.118;2023-12-20T09:44:52;5.60;99.90
1524;DHT22;755;53.658;10.118;2023-12-20T09:54:55;5.70;99.90
1524;DHT22;755;53.658;10.118;2023-12-20T10:04:59;5.80;99.90
1524;DHT22;755;53.658;10.118;2023-12-20T10:15:02;5.40;99.90
1524;DHT22;755;53.658;10.118;2023-12-20T10:25:08;5.40;99.90
1524;DHT22;755;53.658;10.118;2023-12-20T10:35:09;5.30;99.90
1524;DHT22;755;53.658;10.118;2023-12-20T10:45:13;5.30;99.90
1524;DHT22;755;53.658;10.118;2023-12-20T10:55:16;5.20;99.90
1524;DHT22;755;53.658;10.118;2023-12-20T11:05:31;5.10;99.90
1524;DHT22;755;53.658;10.118;2023-12-20T11:15:35;5.20;99.90
1524;DHT22;755;53.658;10.118;2023-12-20T11:25:52;5.20;99.90
1524;DHT22;755;53.658;10.118;2023-12-20T11:35:56;5.20;99.90
1524;DHT22;755;53.658;10.118;2023-12-20T11:46:04;5.00;99.90
1524;DHT22;755;53.658;10.118;2023-12-20T11:56:07;5.10;99.90
1524;DHT22;755;53.658;10.118;2023-12-20T12:06:10;5.10;99.90
1524;DHT22;755;53.658;10.118;2023-12-20T12:16:17;5.10;99.90
1524;DHT22;755;53.658;10.118;2023-12-20T12:26:20;5.50;99.90
1524;DHT22;755;53.658;10.118;2023-12-20T12:36:22;5.40;99.90
1524;DHT22;755;53.658;10.118;2023-12-20T12:46:26;5.70;99.90
1524;DHT22;755;53.658;10.118;2023-12-20T12:56:28;5.80;99.90
1524;DHT22;755;53.658;10.118;2023-12-20T13:06:31;5.80;99.90
1524;DHT22;755;53.658;10.118;2023-12-20T13:16:33;5.80;99.90
1524;DHT22;755;53.658;10.118;2023-12-20T13:26:37;5.70;99.90
1524;DHT22;755;53.658;10.118;2023-12-20T13:36:39;5.70;99.90
1524;DHT22;755;53.658;10.118;2023-12-20T13:46:42;5.80;99.90
1524;DHT22;755;53.658;10.118;2023-12-20T13:56:46;5.70;99.90
1524;DHT22;755;53.658;10.118;2023-12-20T14:06:49;5.60;99.90
1524;DHT22;755;53.658;10.118;2023-12-20T14:16:51;5.70;99.90
1524;DHT22;755;53.658;10.118;2023-12-20T14:26:54;5.50;99.90
1524;DHT22;755;53.658;10.118;2023-12-20T14:36:56;5.40;99.90
1524;DHT22;755;53.658;10.118;2023-12-20T14:46:59;5.50;99.90
1524;DHT22;755;53.658;10.118;2023-12-20T14:57:03;5.50;99.90
1524;DHT22;755;53.658;10.118;2023-12-20T15:07:06;5.40;99.90
1524;DHT22;755;53.658;10.118;2023-12-20T15:17:08;5.50;99.90
1524;DHT22;755;53.658;10.118;2023-12-20T15:27:12;5.50;99.90
1524;DHT22;755;53.658;10.118;2023-12-20T15:37:14;5.50;99.90
1524;DHT22;755;53.658;10.118;2023-12-20T15:47:17;5.40;99.90
1524;DHT22;755;53.658;10.118;2023-12-20T15:57:19;5.40;99.90
1524;DHT22;755;53.658;10.118;2023-12-20T16:07:22;5.30;99.90
1524;DHT22;755;53.658;10.118;2023-12-20T16:17:24;5.00;99.90
1524;DHT22;755;53.658;10.118;2023-12-20T16:27:27;5.00;99.90
1524;DHT22;755;53.658;10.118;2023-12-20T16:37:29;5.00;99.90
1524;DHT22;755;53.658;10.118;2023-12-20T16:47:32;5.00;99.90
1524;DHT22;755;53.658;10.118;2023-12-20T16:57:34;4.70;99.90
1524;DHT22;755;53.658;10.118;2023-12-20T17:07:38;4.60;99.90
1524;DHT22;755;53.658;10.118;2023-12-20T17:17:40;4.50;99.90
1524;DHT22;755;53.658;10.118;2023-12-20T17:27:43;4.50;99.90
1524;DHT22;755;53.658;10.118;2023-12-20T17:37:45;4.40;99.90
1524;DHT22;755;53.658;10.118;2023-12-20T17:47:49;4.50;99.90
1524;DHT22;755;53.658;10.118;2023-12-20T17:57:51;4.60;99.90
1524;DHT22;755;53.658;10.118;2023-12-20T18:07:54;4.50;99.90
1524;DHT22;755;53.658;10.118;2023-12-20T18:17:56;4.60;99.90
1524;DHT22;755;53.658;10.118;2023-12-20T18:27:59;4.60;99.90
1524;DHT22;755;53.658;10.118;2023-12-20T18:38:01;4.70;99.90
1524;DHT22;755;53.658;10.118;2023-12-20T18:48:05;4.70;99.90
1524;DHT22;755;53.658;10.118;2023-12-20T18:58:07;4.80;99.90
1524;DHT22;755;53.658;10.118;2023-12-20T19:08:10;5.00;99.90
1524;DHT22;755;53.658;10.118;2023-12-20T19:18:12;5.00;99.90
1524;DHT22;755;53.658;10.118;2023-12-20T19:28:15;5.00;99.90
1524;DHT22;755;53.658;10.118;2023-12-20T19:38:17;5.10;99.90
1524;DHT22;755;53.658;10.118;2023-12-20T19:48:22;5.10;99.90
1524;DHT22;755;53.658;10.118;2023-12-20T19:58:24;5.00;99.90
1524;DHT22;755;53.658;10.118;2023-12-20T20:08:27;5.10;99.90
1524;DHT22;755;53.658;10.118;2023-12-20T20:18:29;5.10;99.90
1524;DHT22;755;53.658;10.118;2023-12-20T20:28:32;5.10;99.90
1524;DHT22;755;53.658;10.118;2023-12-20T20:38:34;5.10;99.90
1524;DHT22;755;53.658;10.118;2023-12-20T20:48:37;5.10;99.90
1524;DHT22;755;53.658;10.118;2023-12-20T20:58:39;5.10;99.90
1524;DHT22;755;53.658;10.118;2023-12-20T21:08:42;5.20;99.90
1524;DHT22;755;53.658;10.118;2023-12-20T21:18:44;5.20;99.90
1524;DHT22;755;53.658;10.118;2023-12-20T21:28:47;5.30;99.90
1524;DHT22;755;53.658;10.118;2023-12-20T21:38:49;5.40;99.90
1524;DHT22;755;53.658;10.118;2023-12-20T21:48:53;5.30;99.90
1524;DHT22;755;53.658;10.118;2023-12-20T21:58:55;5.40;99.90
1524;DHT22;755;53.658;10.118;2023-12-20T22:08:58;5.50;99.90
1524;DHT22;755;53.658;10.118;2023-12-20T22:19:00;5.60;99.90
1524;DHT22;755;53.658;10.118;2023-12-20T22:29:03;5.60;99.90
1524;DHT22;755;53.658;10.118;2023-12-20T22:39:05;5.60;99.90
1524;DHT22;755;53.658;10.118;2023-12-20T22:49:09;5.60;99.90
1524;DHT22;755;53.658;10.118;2023-12-20T22:59:11;5.50;99.90
1524;DHT22;755;53.658;10.118;2023-12-20T23:09:15;5.60;99.90
1524;DHT22;755;53.658;10.118;2023-12-20T23:19:18;5.60;99.90
1524;DHT22;755;53.658;10.118;2023-12-20T23:29:22;5.70;99.90
1524;DHT22;755;53.658;10.118;2023-12-20T23:39:25;5.60;99.90
1524;DHT22;755;53.658;10.118;2023-12-20T23:49:30;5.50;99.90
1524;DHT22;755;53.658;10.118;2023-12-20T23:59:32;5.60;99.90
